sensor_id;sensor_type;location;lat;lon;timestamp;P1;durP1;ratioP1;P2;durP2;ratioP2
70157;SDS011;57524;48.312;7.938;2022-08-19T00:00:46;13.02;;;9.02;;
70157;SDS011;57524;48.312;7.938;2022-08-19T00:03:15;11.90;;;8.45;;
70157;SDS011;57524;48.312;7.938;2022-08-19T00:05:42;12.23;;;8.60;;
70157;SDS011;57524;48.312;7.938;2022-08-19T00:08:09;12.13;;;9.02;;
70157;SDS011;57524;48.312;7.938;2022-08-19T00:10:36;12.73;;;9.00;;
70157;SDS011;57524;48.312;7.938;2022-08-19T00:13:02;13.85;;;9.90;;
70157;SDS011;57524;48.312;7.938;2022-08-19T00:15:30;15.23;;;9.40;;
70157;SDS011;57524;48.312;7.938;2022-08-19T00:17:57;13.15;;;9.52;;
70157;SDS011;57524;48.312;7.938;2022-08-19T00:20:23;13.57;;;9.90;;
70157;SDS011;57524;48.312;7.938;2022-08-19T00:22:50;14.48;;;9.95;;
70157;SDS011;57524;48.312;7.938;2022-08-19T00:25:17;14.27;;;9.85;;
70157;SDS011;57524;48.312;7.938;2022-08-19T00:27:44;13.65;;;10.23;;
70157;SDS011;57524;48.312;7.938;2022-08-19T00:30:11;14.45;;;10.30;;
70157;SDS011;57524;48.312;7.938;2022-08-19T00:32:39;15.20;;;10.38;;
70157;SDS011;57524;48.312;7.938;2022-08-19T00:35:07;13.70;;;9.07;;
70157;SDS011;57524;48.312;7.938;2022-08-19T00:37:34;13.70;;;9.25;;
70157;SDS011;57524;48.312;7.938;2022-08-19T00:40:02;13.38;;;9.48;;
70157;SDS011;57524;48.312;7.938;2022-08-19T00:42:32;14.05;;;9.45;;
70157;SDS011;57524;48.312;7.938;2022-08-19T00:44:58;14.30;;;10.07;;
70157;SDS011;57524;48.312;7.938;2022-08-19T00:47:25;13.23;;;9.50;;
70157;SDS011;57524;48.312;7.938;2022-08-19T00:49:53;14.43;;;10.10;;
70157;SDS011;57524;48.312;7.938;2022-08-19T00:52:23;13.98;;;9.90;;
70157;SDS011;57524;48.312;7.938;2022-08-19T00:54:54;14.10;;;10.02;;
70157;SDS011;57524;48.312;7.938;2022-08-19T00:57:23;14.13;;;9.65;;
70157;SDS011;57524;48.312;7.938;2022-08-19T00:59:54;12.38;;;9.40;;
70157;SDS011;57524;48.312;7.938;2022-08-19T01:02:24;13.65;;;9.57;;
70157;SDS011;57524;48.312;7.938;2022-08-19T01:04:52;13.23;;;9.10;;
70157;SDS011;57524;48.312;7.938;2022-08-19T01:07:19;13.00;;;9.00;;
70157;SDS011;57524;48.312;7.938;2022-08-19T01:09:46;13.45;;;9.30;;
70157;SDS011;57524;48.312;7.938;2022-08-19T01:12:13;13.10;;;9.60;;
70157;SDS011;57524;48.312;7.938;2022-08-19T01:14:40;13.35;;;9.70;;
70157;SDS011;57524;48.312;7.938;2022-08-19T01:17:07;13.10;;;9.60;;
70157;SDS011;57524;48.312;7.938;2022-08-19T01:19:36;13.68;;;9.48;;
70157;SDS011;57524;48.312;7.938;2022-08-19T01:22:08;13.05;;;9.55;;
70157;SDS011;57524;48.312;7.938;2022-08-19T01:24:42;13.73;;;9.95;;
70157;SDS011;57524;48.312;7.938;2022-08-19T01:27:09;14.25;;;9.55;;
70157;SDS011;57524;48.312;7.938;2022-08-19T01:29:36;13.07;;;9.68;;
70157;SDS011;57524;48.312;7.938;2022-08-19T01:32:04;13.25;;;9.50;;
70157;SDS011;57524;48.312;7.938;2022-08-19T01:34:31;13.85;;;9.68;;
70157;SDS011;57524;48.312;7.938;2022-08-19T01:36:59;12.75;;;9.77;;
70157;SDS011;57524;48.312;7.938;2022-08-19T01:39:27;13.07;;;9.27;;
70157;SDS011;57524;48.312;7.938;2022-08-19T01:41:55;14.13;;;9.63;;
70157;SDS011;57524;48.312;7.938;2022-08-19T01:44:22;13.35;;;9.68;;
70157;SDS011;57524;48.312;7.938;2022-08-19T01:46:50;13.88;;;10.25;;
70157;SDS011;57524;48.312;7.938;2022-08-19T01:49:17;13.73;;;9.95;;
70157;SDS011;57524;48.312;7.938;2022-08-19T01:51:46;15.32;;;10.40;;
70157;SDS011;57524;48.312;7.938;2022-08-19T01:54:14;14.45;;;10.05;;
70157;SDS011;57524;48.312;7.938;2022-08-19T01:56:43;14.05;;;9.95;;
70157;SDS011;57524;48.312;7.938;2022-08-19T01:59:12;14.25;;;9.27;;
70157;SDS011;57524;48.312;7.938;2022-08-19T02:01:42;14.98;;;10.02;;
70157;SDS011;57524;48.312;7.938;2022-08-19T02:04:09;14.15;;;9.60;;
70157;SDS011;57524;48.312;7.938;2022-08-19T02:06:36;15.48;;;9.52;;
70157;SDS011;57524;48.312;7.938;2022-08-19T02:09:07;13.98;;;9.48;;
70157;SDS011;57524;48.312;7.938;2022-08-19T02:11:35;13.35;;;9.30;;
70157;SDS011;57524;48.312;7.938;2022-08-19T02:14:04;13.20;;;9.63;;
70157;SDS011;57524;48.312;7.938;2022-08-19T02:16:34;13.40;;;9.05;;
70157;SDS011;57524;48.312;7.938;2022-08-19T02:19:01;14.35;;;10.00;;
70157;SDS011;57524;48.312;7.938;2022-08-19T02:21:28;14.07;;;9.88;;
70157;SDS011;57524;48.312;7.938;2022-08-19T02:23:55;13.80;;;9.98;;
70157;SDS011;57524;48.312;7.938;2022-08-19T02:26:22;15.63;;;10.00;;
70157;SDS011;57524;48.312;7.938;2022-08-19T02:28:51;15.10;;;10.65;;
70157;SDS011;57524;48.312;7.938;2022-08-19T02:31:20;15.52;;;10.32;;
70157;SDS011;57524;48.312;7.938;2022-08-19T02:33:49;15.15;;;10.57;;
70157;SDS011;57524;48.312;7.938;2022-08-19T02:36:17;15.15;;;10.57;;
70157;SDS011;57524;48.312;7.938;2022-08-19T02:38:45;15.93;;;10.60;;
70157;SDS011;57524;48.312;7.938;2022-08-19T02:41:14;16.20;;;10.68;;
70157;SDS011;57524;48.312;7.938;2022-08-19T02:43:42;17.80;;;10.82;;
70157;SDS011;57524;48.312;7.938;2022-08-19T02:46:13;15.55;;;10.55;;
70157;SDS011;57524;48.312;7.938;2022-08-19T02:48:42;15.73;;;10.93;;
70157;SDS011;57524;48.312;7.938;2022-08-19T02:51:16;15.77;;;10.38;;
70157;SDS011;57524;48.312;7.938;2022-08-19T02:53:43;17.17;;;11.05;;
70157;SDS011;57524;48.312;7.938;2022-08-19T02:56:10;16.08;;;10.63;;
70157;SDS011;57524;48.312;7.938;2022-08-19T02:58:37;16.33;;;11.35;;
70157;SDS011;57524;48.312;7.938;2022-08-19T03:01:03;15.07;;;10.02;;
70157;SDS011;57524;48.312;7.938;2022-08-19T03:03:30;13.65;;;9.90;;
70157;SDS011;57524;48.312;7.938;2022-08-19T03:06:04;15.20;;;10.77;;
70157;SDS011;57524;48.312;7.938;2022-08-19T03:08:34;16.25;;;10.73;;
70157;SDS011;57524;48.312;7.938;2022-08-19T03:11:02;15.10;;;10.63;;
70157;SDS011;57524;48.312;7.938;2022-08-19T03:13:29;16.02;;;10.27;;
70157;SDS011;57524;48.312;7.938;2022-08-19T03:15:56;14.20;;;10.43;;
70157;SDS011;57524;48.312;7.938;2022-08-19T03:18:23;15.90;;;10.55;;
70157;SDS011;57524;48.312;7.938;2022-08-19T03:20:50;15.48;;;10.20;;
70157;SDS011;57524;48.312;7.938;2022-08-19T03:23:19;14.15;;;10.13;;
70157;SDS011;57524;48.312;7.938;2022-08-19T03:25:48;14.90;;;10.60;;
70157;SDS011;57524;48.312;7.938;2022-08-19T03:28:17;14.57;;;10.50;;
70157;SDS011;57524;48.312;7.938;2022-08-19T03:30:54;13.88;;;9.93;;
70157;SDS011;57524;48.312;7.938;2022-08-19T03:33:22;14.68;;;10.20;;
70157;SDS011;57524;48.312;7.938;2022-08-19T03:36:00;14.15;;;9.73;;
70157;SDS011;57524;48.312;7.938;2022-08-19T03:38:28;13.50;;;9.85;;
70157;SDS011;57524;48.312;7.938;2022-08-19T03:40:57;14.70;;;9.25;;
70157;SDS011;57524;48.312;7.938;2022-08-19T03:43:24;14.32;;;9.27;;
70157;SDS011;57524;48.312;7.938;2022-08-19T03:45:59;13.80;;;9.57;;
70157;SDS011;57524;48.312;7.938;2022-08-19T03:48:27;15.38;;;9.88;;
70157;SDS011;57524;48.312;7.938;2022-08-19T03:50:55;14.70;;;9.93;;
70157;SDS011;57524;48.312;7.938;2022-08-19T03:53:23;13.63;;;9.25;;
70157;SDS011;57524;48.312;7.938;2022-08-19T03:55:50;15.27;;;9.48;;
70157;SDS011;57524;48.312;7.938;2022-08-19T03:58:19;14.77;;;9.85;;
70157;SDS011;57524;48.312;7.938;2022-08-19T04:00:46;14.65;;;9.60;;
70157;SDS011;57524;48.312;7.938;2022-08-19T04:03:13;12.95;;;9.38;;
70157;SDS011;57524;48.312;7.938;2022-08-19T04:05:39;12.50;;;8.40;;
70157;SDS011;57524;48.312;7.938;2022-08-19T04:08:06;14.55;;;9.15;;
70157;SDS011;57524;48.312;7.938;2022-08-19T04:10:34;13.43;;;8.70;;
70157;SDS011;57524;48.312;7.938;2022-08-19T04:13:02;15.00;;;9.23;;
70157;SDS011;57524;48.312;7.938;2022-08-19T04:15:30;14.23;;;9.35;;
70157;SDS011;57524;48.312;7.938;2022-08-19T04:18:00;14.27;;;10.00;;
70157;SDS011;57524;48.312;7.938;2022-08-19T04:20:27;14.10;;;9.95;;
70157;SDS011;57524;48.312;7.938;2022-08-19T04:22:56;13.88;;;9.65;;
70157;SDS011;57524;48.312;7.938;2022-08-19T04:25:22;13.20;;;9.02;;
70157;SDS011;57524;48.312;7.938;2022-08-19T04:27:49;12.50;;;8.18;;
70157;SDS011;57524;48.312;7.938;2022-08-19T04:30:16;13.95;;;9.45;;
70157;SDS011;57524;48.312;7.938;2022-08-19T04:32:44;15.02;;;9.30;;
70157;SDS011;57524;48.312;7.938;2022-08-19T04:35:10;13.05;;;8.73;;
70157;SDS011;57524;48.312;7.938;2022-08-19T04:37:37;12.82;;;8.93;;
70157;SDS011;57524;48.312;7.938;2022-08-19T04:40:05;13.15;;;8.82;;
70157;SDS011;57524;48.312;7.938;2022-08-19T04:42:50;14.15;;;9.07;;
70157;SDS011;57524;48.312;7.938;2022-08-19T04:45:18;15.23;;;9.68;;
70157;SDS011;57524;48.312;7.938;2022-08-19T04:47:46;14.27;;;9.70;;
70157;SDS011;57524;48.312;7.938;2022-08-19T04:50:13;13.55;;;9.43;;
70157;SDS011;57524;48.312;7.938;2022-08-19T04:52:44;14.88;;;9.82;;
70157;SDS011;57524;48.312;7.938;2022-08-19T04:55:11;14.35;;;9.57;;
70157;SDS011;57524;48.312;7.938;2022-08-19T04:57:39;13.38;;;9.05;;
70157;SDS011;57524;48.312;7.938;2022-08-19T05:00:06;13.23;;;9.40;;
70157;SDS011;57524;48.312;7.938;2022-08-19T05:02:34;13.32;;;9.25;;
70157;SDS011;57524;48.312;7.938;2022-08-19T05:05:03;14.07;;;9.60;;
70157;SDS011;57524;48.312;7.938;2022-08-19T05:07:31;13.35;;;9.00;;
70157;SDS011;57524;48.312;7.938;2022-08-19T05:09:58;12.30;;;8.75;;
70157;SDS011;57524;48.312;7.938;2022-08-19T05:12:24;12.50;;;9.00;;
70157;SDS011;57524;48.312;7.938;2022-08-19T05:14:52;11.90;;;8.73;;
70157;SDS011;57524;48.312;7.938;2022-08-19T05:17:19;12.40;;;8.75;;
70157;SDS011;57524;48.312;7.938;2022-08-19T05:19:46;12.32;;;8.40;;
70157;SDS011;57524;48.312;7.938;2022-08-19T05:22:31;12.98;;;8.77;;
70157;SDS011;57524;48.312;7.938;2022-08-19T05:25:01;12.48;;;8.70;;
70157;SDS011;57524;48.312;7.938;2022-08-19T05:27:30;13.15;;;9.10;;
70157;SDS011;57524;48.312;7.938;2022-08-19T05:29:57;13.52;;;9.13;;
70157;SDS011;57524;48.312;7.938;2022-08-19T05:32:24;14.10;;;9.18;;
70157;SDS011;57524;48.312;7.938;2022-08-19T05:34:51;12.77;;;8.75;;
70157;SDS011;57524;48.312;7.938;2022-08-19T05:37:17;12.20;;;8.32;;
70157;SDS011;57524;48.312;7.938;2022-08-19T05:39:45;13.25;;;8.70;;
70157;SDS011;57524;48.312;7.938;2022-08-19T05:42:12;13.52;;;8.90;;
70157;SDS011;57524;48.312;7.938;2022-08-19T05:44:40;12.75;;;8.68;;
70157;SDS011;57524;48.312;7.938;2022-08-19T05:47:09;13.32;;;8.82;;
70157;SDS011;57524;48.312;7.938;2022-08-19T05:49:37;12.20;;;8.30;;
70157;SDS011;57524;48.312;7.938;2022-08-19T05:52:04;12.85;;;9.07;;
70157;SDS011;57524;48.312;7.938;2022-08-19T05:54:32;12.27;;;8.88;;
70157;SDS011;57524;48.312;7.938;2022-08-19T05:57:00;12.60;;;8.85;;
70157;SDS011;57524;48.312;7.938;2022-08-19T05:59:28;10.52;;;7.70;;
70157;SDS011;57524;48.312;7.938;2022-08-19T06:01:54;11.23;;;8.18;;
70157;SDS011;57524;48.312;7.938;2022-08-19T06:04:22;10.43;;;7.30;;
70157;SDS011;57524;48.312;7.938;2022-08-19T06:06:51;11.15;;;7.95;;
70157;SDS011;57524;48.312;7.938;2022-08-19T06:09:19;13.50;;;8.73;;
70157;SDS011;57524;48.312;7.938;2022-08-19T06:11:47;11.75;;;8.40;;
70157;SDS011;57524;48.312;7.938;2022-08-19T06:14:20;12.93;;;9.07;;
70157;SDS011;57524;48.312;7.938;2022-08-19T06:16:49;12.57;;;9.50;;
70157;SDS011;57524;48.312;7.938;2022-08-19T06:19:17;12.65;;;9.05;;
70157;SDS011;57524;48.312;7.938;2022-08-19T06:21:46;12.77;;;9.18;;
70157;SDS011;57524;48.312;7.938;2022-08-19T06:24:16;12.10;;;9.05;;
70157;SDS011;57524;48.312;7.938;2022-08-19T06:26:45;14.68;;;9.75;;
70157;SDS011;57524;48.312;7.938;2022-08-19T06:29:14;13.32;;;9.43;;
70157;SDS011;57524;48.312;7.938;2022-08-19T06:31:45;14.50;;;9.32;;
70157;SDS011;57524;48.312;7.938;2022-08-19T06:34:14;13.57;;;9.25;;
70157;SDS011;57524;48.312;7.938;2022-08-19T06:36:42;13.20;;;9.32;;
70157;SDS011;57524;48.312;7.938;2022-08-19T06:39:11;12.60;;;8.80;;
70157;SDS011;57524;48.312;7.938;2022-08-19T06:41:40;11.60;;;8.50;;
70157;SDS011;57524;48.312;7.938;2022-08-19T06:44:15;14.45;;;9.10;;
70157;SDS011;57524;48.312;7.938;2022-08-19T06:46:44;13.60;;;9.43;;
70157;SDS011;57524;48.312;7.938;2022-08-19T06:49:11;12.35;;;8.95;;
70157;SDS011;57524;48.312;7.938;2022-08-19T06:51:40;14.48;;;9.13;;
70157;SDS011;57524;48.312;7.938;2022-08-19T06:54:08;13.02;;;9.35;;
70157;SDS011;57524;48.312;7.938;2022-08-19T06:56:35;13.70;;;9.90;;
70157;SDS011;57524;48.312;7.938;2022-08-19T06:59:04;12.55;;;9.30;;
70157;SDS011;57524;48.312;7.938;2022-08-19T07:01:34;13.50;;;9.57;;
70157;SDS011;57524;48.312;7.938;2022-08-19T07:04:04;15.20;;;10.32;;
70157;SDS011;57524;48.312;7.938;2022-08-19T07:06:32;14.45;;;10.70;;
70157;SDS011;57524;48.312;7.938;2022-08-19T07:08:58;15.30;;;10.35;;
70157;SDS011;57524;48.312;7.938;2022-08-19T07:11:25;14.90;;;10.00;;
70157;SDS011;57524;48.312;7.938;2022-08-19T07:13:52;17.05;;;11.02;;
70157;SDS011;57524;48.312;7.938;2022-08-19T07:16:20;14.55;;;10.18;;
70157;SDS011;57524;48.312;7.938;2022-08-19T07:18:47;15.98;;;10.82;;
70157;SDS011;57524;48.312;7.938;2022-08-19T07:21:18;15.10;;;10.63;;
70157;SDS011;57524;48.312;7.938;2022-08-19T07:23:46;15.68;;;11.30;;
70157;SDS011;57524;48.312;7.938;2022-08-19T07:26:14;15.52;;;10.90;;
70157;SDS011;57524;48.312;7.938;2022-08-19T07:28:42;17.90;;;10.95;;
70157;SDS011;57524;48.312;7.938;2022-08-19T07:31:10;14.50;;;10.10;;
70157;SDS011;57524;48.312;7.938;2022-08-19T07:33:38;16.10;;;11.35;;
70157;SDS011;57524;48.312;7.938;2022-08-19T07:36:05;16.70;;;11.25;;
70157;SDS011;57524;48.312;7.938;2022-08-19T07:38:36;17.70;;;11.43;;
70157;SDS011;57524;48.312;7.938;2022-08-19T07:41:05;17.05;;;10.93;;
70157;SDS011;57524;48.312;7.938;2022-08-19T07:43:33;16.85;;;11.25;;
70157;SDS011;57524;48.312;7.938;2022-08-19T07:45:59;17.20;;;12.07;;
70157;SDS011;57524;48.312;7.938;2022-08-19T07:48:27;17.85;;;11.95;;
70157;SDS011;57524;48.312;7.938;2022-08-19T07:50:54;18.40;;;12.07;;
70157;SDS011;57524;48.312;7.938;2022-08-19T07:53:23;18.60;;;12.75;;
70157;SDS011;57524;48.312;7.938;2022-08-19T07:55:51;17.88;;;12.20;;
70157;SDS011;57524;48.312;7.938;2022-08-19T07:58:19;19.25;;;12.05;;
70157;SDS011;57524;48.312;7.938;2022-08-19T08:00:48;17.83;;;11.50;;
70157;SDS011;57524;48.312;7.938;2022-08-19T08:03:16;18.35;;;12.15;;
70157;SDS011;57524;48.312;7.938;2022-08-19T08:05:53;19.00;;;13.50;;
70157;SDS011;57524;48.312;7.938;2022-08-19T08:08:37;19.48;;;13.07;;
70157;SDS011;57524;48.312;7.938;2022-08-19T08:11:23;19.27;;;13.18;;
70157;SDS011;57524;48.312;7.938;2022-08-19T08:13:49;20.33;;;12.68;;
70157;SDS011;57524;48.312;7.938;2022-08-19T08:16:16;18.90;;;12.38;;
70157;SDS011;57524;48.312;7.938;2022-08-19T08:18:43;20.00;;;13.18;;
70157;SDS011;57524;48.312;7.938;2022-08-19T08:21:10;19.15;;;12.57;;
70157;SDS011;57524;48.312;7.938;2022-08-19T08:23:36;19.48;;;12.65;;
70157;SDS011;57524;48.312;7.938;2022-08-19T08:26:03;19.00;;;13.35;;
70157;SDS011;57524;48.312;7.938;2022-08-19T08:28:31;21.48;;;12.98;;
70157;SDS011;57524;48.312;7.938;2022-08-19T08:30:58;18.35;;;12.60;;
70157;SDS011;57524;48.312;7.938;2022-08-19T08:33:25;20.85;;;13.45;;
70157;SDS011;57524;48.312;7.938;2022-08-19T08:35:55;19.63;;;13.52;;
70157;SDS011;57524;48.312;7.938;2022-08-19T08:38:22;21.92;;;13.70;;
70157;SDS011;57524;48.312;7.938;2022-08-19T08:40:49;19.08;;;13.70;;
70157;SDS011;57524;48.312;7.938;2022-08-19T08:43:22;20.08;;;14.30;;
70157;SDS011;57524;48.312;7.938;2022-08-19T08:45:55;19.73;;;13.32;;
70157;SDS011;57524;48.312;7.938;2022-08-19T08:48:34;20.42;;;14.15;;
70157;SDS011;57524;48.312;7.938;2022-08-19T08:51:07;18.23;;;12.75;;
70157;SDS011;57524;48.312;7.938;2022-08-19T08:53:37;20.20;;;13.80;;
70157;SDS011;57524;48.312;7.938;2022-08-19T08:56:06;19.77;;;13.48;;
70157;SDS011;57524;48.312;7.938;2022-08-19T08:58:40;19.48;;;13.77;;
70157;SDS011;57524;48.312;7.938;2022-08-19T09:01:14;22.20;;;14.75;;
70157;SDS011;57524;48.312;7.938;2022-08-19T09:03:41;19.77;;;13.88;;
70157;SDS011;57524;48.312;7.938;2022-08-19T09:06:14;21.75;;;14.45;;
70157;SDS011;57524;48.312;7.938;2022-08-19T09:08:53;21.88;;;15.10;;
70157;SDS011;57524;48.312;7.938;2022-08-19T09:11:30;22.02;;;15.23;;
70157;SDS011;57524;48.312;7.938;2022-08-19T09:14:09;19.13;;;13.02;;
70157;SDS011;57524;48.312;7.938;2022-08-19T09:16:43;21.13;;;14.43;;
70157;SDS011;57524;48.312;7.938;2022-08-19T09:19:10;21.70;;;13.95;;
70157;SDS011;57524;48.312;7.938;2022-08-19T09:21:37;21.77;;;14.55;;
70157;SDS011;57524;48.312;7.938;2022-08-19T09:24:04;23.38;;;14.75;;
70157;SDS011;57524;48.312;7.938;2022-08-19T09:26:32;24.55;;;16.02;;
70157;SDS011;57524;48.312;7.938;2022-08-19T09:28:59;24.05;;;16.45;;
70157;SDS011;57524;48.312;7.938;2022-08-19T09:31:28;23.55;;;15.85;;
70157;SDS011;57524;48.312;7.938;2022-08-19T09:33:57;22.73;;;15.75;;
70157;SDS011;57524;48.312;7.938;2022-08-19T09:36:24;23.48;;;17.10;;
70157;SDS011;57524;48.312;7.938;2022-08-19T09:38:53;24.45;;;16.23;;
70157;SDS011;57524;48.312;7.938;2022-08-19T09:41:23;20.50;;;14.43;;
70157;SDS011;57524;48.312;7.938;2022-08-19T09:43:51;25.23;;;17.27;;
70157;SDS011;57524;48.312;7.938;2022-08-19T09:46:21;22.73;;;15.32;;
70157;SDS011;57524;48.312;7.938;2022-08-19T09:48:49;23.80;;;16.67;;
70157;SDS011;57524;48.312;7.938;2022-08-19T09:51:19;22.88;;;14.50;;
70157;SDS011;57524;48.312;7.938;2022-08-19T09:53:47;24.95;;;17.23;;
70157;SDS011;57524;48.312;7.938;2022-08-19T09:56:16;22.08;;;14.95;;
70157;SDS011;57524;48.312;7.938;2022-08-19T09:58:44;25.33;;;17.25;;
70157;SDS011;57524;48.312;7.938;2022-08-19T10:01:15;23.20;;;16.75;;
70157;SDS011;57524;48.312;7.938;2022-08-19T10:03:46;22.23;;;14.18;;
70157;SDS011;57524;48.312;7.938;2022-08-19T10:06:14;25.23;;;16.63;;
70157;SDS011;57524;48.312;7.938;2022-08-19T10:08:42;23.38;;;16.02;;
70157;SDS011;57524;48.312;7.938;2022-08-19T10:11:09;25.63;;;16.17;;
70157;SDS011;57524;48.312;7.938;2022-08-19T10:13:36;21.58;;;15.32;;
70157;SDS011;57524;48.312;7.938;2022-08-19T10:16:03;20.27;;;14.68;;
70157;SDS011;57524;48.312;7.938;2022-08-19T10:18:33;21.67;;;15.75;;
70157;SDS011;57524;48.312;7.938;2022-08-19T10:21:03;20.48;;;14.52;;
70157;SDS011;57524;48.312;7.938;2022-08-19T10:23:35;24.80;;;15.73;;
70157;SDS011;57524;48.312;7.938;2022-08-19T10:26:05;22.60;;;16.10;;
70157;SDS011;57524;48.312;7.938;2022-08-19T10:28:33;24.77;;;16.33;;
70157;SDS011;57524;48.312;7.938;2022-08-19T10:31:06;24.30;;;16.02;;
70157;SDS011;57524;48.312;7.938;2022-08-19T10:33:34;22.30;;;15.50;;
70157;SDS011;57524;48.312;7.938;2022-08-19T10:36:02;23.00;;;15.57;;
70157;SDS011;57524;48.312;7.938;2022-08-19T10:38:31;20.88;;;14.50;;
70157;SDS011;57524;48.312;7.938;2022-08-19T10:41:07;21.65;;;14.43;;
70157;SDS011;57524;48.312;7.938;2022-08-19T10:43:34;21.00;;;14.07;;
70157;SDS011;57524;48.312;7.938;2022-08-19T10:46:03;19.65;;;13.63;;
70157;SDS011;57524;48.312;7.938;2022-08-19T10:48:31;22.98;;;15.88;;
70157;SDS011;57524;48.312;7.938;2022-08-19T10:50:57;20.20;;;14.48;;
70157;SDS011;57524;48.312;7.938;2022-08-19T10:53:42;19.92;;;13.07;;
70157;SDS011;57524;48.312;7.938;2022-08-19T10:56:10;19.23;;;13.83;;
70157;SDS011;57524;48.312;7.938;2022-08-19T10:58:54;21.50;;;14.00;;
70157;SDS011;57524;48.312;7.938;2022-08-19T11:01:21;21.20;;;14.70;;
70157;SDS011;57524;48.312;7.938;2022-08-19T11:03:48;19.10;;;14.18;;
70157;SDS011;57524;48.312;7.938;2022-08-19T11:06:15;24.80;;;16.02;;
70157;SDS011;57524;48.312;7.938;2022-08-19T11:08:41;20.60;;;13.93;;
70157;SDS011;57524;48.312;7.938;2022-08-19T11:11:12;20.10;;;14.07;;
70157;SDS011;57524;48.312;7.938;2022-08-19T11:13:39;22.55;;;14.93;;
70157;SDS011;57524;48.312;7.938;2022-08-19T11:16:10;20.13;;;14.77;;
70157;SDS011;57524;48.312;7.938;2022-08-19T11:18:39;24.48;;;16.15;;
70157;SDS011;57524;48.312;7.938;2022-08-19T11:21:08;20.10;;;14.23;;
70157;SDS011;57524;48.312;7.938;2022-08-19T11:23:37;20.95;;;14.90;;
70157;SDS011;57524;48.312;7.938;2022-08-19T11:26:04;19.15;;;13.77;;
70157;SDS011;57524;48.312;7.938;2022-08-19T11:28:32;21.98;;;15.27;;
70157;SDS011;57524;48.312;7.938;2022-08-19T11:30:58;22.15;;;14.60;;
70157;SDS011;57524;48.312;7.938;2022-08-19T11:33:25;21.50;;;14.60;;
70157;SDS011;57524;48.312;7.938;2022-08-19T11:35:52;18.80;;;13.77;;
70157;SDS011;57524;48.312;7.938;2022-08-19T11:38:19;19.70;;;14.20;;
70157;SDS011;57524;48.312;7.938;2022-08-19T11:40:53;20.23;;;14.13;;
70157;SDS011;57524;48.312;7.938;2022-08-19T11:43:20;21.55;;;14.43;;
70157;SDS011;57524;48.312;7.938;2022-08-19T11:45:48;19.63;;;13.80;;
70157;SDS011;57524;48.312;7.938;2022-08-19T11:48:15;22.50;;;14.52;;
70157;SDS011;57524;48.312;7.938;2022-08-19T11:50:42;17.98;;;12.70;;
70157;SDS011;57524;48.312;7.938;2022-08-19T11:53:09;18.40;;;13.23;;
70157;SDS011;57524;48.312;7.938;2022-08-19T11:55:36;20.70;;;14.43;;
70157;SDS011;57524;48.312;7.938;2022-08-19T11:58:04;17.90;;;13.93;;
70157;SDS011;57524;48.312;7.938;2022-08-19T12:00:32;20.13;;;14.60;;
70157;SDS011;57524;48.312;7.938;2022-08-19T12:03:01;18.75;;;12.77;;
70157;SDS011;57524;48.312;7.938;2022-08-19T12:05:28;18.05;;;13.05;;
70157;SDS011;57524;48.312;7.938;2022-08-19T12:07:55;17.63;;;12.43;;
70157;SDS011;57524;48.312;7.938;2022-08-19T12:10:22;19.67;;;13.27;;
70157;SDS011;57524;48.312;7.938;2022-08-19T12:12:49;21.67;;;14.60;;
70157;SDS011;57524;48.312;7.938;2022-08-19T12:15:16;19.52;;;13.98;;
70157;SDS011;57524;48.312;7.938;2022-08-19T12:17:43;19.55;;;14.75;;
70157;SDS011;57524;48.312;7.938;2022-08-19T12:20:12;18.75;;;12.85;;
70157;SDS011;57524;48.312;7.938;2022-08-19T12:22:40;19.00;;;13.87;;
70157;SDS011;57524;48.312;7.938;2022-08-19T12:25:08;19.83;;;14.13;;
70157;SDS011;57524;48.312;7.938;2022-08-19T12:27:37;17.73;;;13.10;;
70157;SDS011;57524;48.312;7.938;2022-08-19T12:30:04;20.45;;;14.40;;
70157;SDS011;57524;48.312;7.938;2022-08-19T12:32:33;17.13;;;13.55;;
70157;SDS011;57524;48.312;7.938;2022-08-19T12:34:59;17.93;;;12.47;;
70157;SDS011;57524;48.312;7.938;2022-08-19T12:37:28;21.67;;;15.38;;
70157;SDS011;57524;48.312;7.938;2022-08-19T12:39:54;19.80;;;14.57;;
70157;SDS011;57524;48.312;7.938;2022-08-19T12:42:21;17.75;;;12.70;;
70157;SDS011;57524;48.312;7.938;2022-08-19T12:44:48;20.88;;;15.25;;
70157;SDS011;57524;48.312;7.938;2022-08-19T12:47:16;17.93;;;13.77;;
70157;SDS011;57524;48.312;7.938;2022-08-19T12:49:43;20.60;;;15.02;;
70157;SDS011;57524;48.312;7.938;2022-08-19T12:52:11;18.92;;;14.38;;
70157;SDS011;57524;48.312;7.938;2022-08-19T12:54:42;17.73;;;13.27;;
70157;SDS011;57524;48.312;7.938;2022-08-19T12:57:09;16.10;;;12.20;;
70157;SDS011;57524;48.312;7.938;2022-08-19T12:59:37;16.70;;;12.60;;
70157;SDS011;57524;48.312;7.938;2022-08-19T13:02:05;15.32;;;12.48;;
70157;SDS011;57524;48.312;7.938;2022-08-19T13:04:33;14.82;;;12.02;;
70157;SDS011;57524;48.312;7.938;2022-08-19T13:07:03;15.93;;;13.02;;
70157;SDS011;57524;48.312;7.938;2022-08-19T13:09:29;15.45;;;11.93;;
70157;SDS011;57524;48.312;7.938;2022-08-19T13:11:57;15.60;;;12.27;;
70157;SDS011;57524;48.312;7.938;2022-08-19T13:14:27;15.93;;;11.98;;
70157;SDS011;57524;48.312;7.938;2022-08-19T13:16:56;13.82;;;10.93;;
70157;SDS011;57524;48.312;7.938;2022-08-19T13:19:23;13.93;;;12.02;;
70157;SDS011;57524;48.312;7.938;2022-08-19T13:21:49;15.13;;;11.43;;
70157;SDS011;57524;48.312;7.938;2022-08-19T13:24:17;12.73;;;11.17;;
70157;SDS011;57524;48.312;7.938;2022-08-19T13:26:44;13.15;;;11.32;;
70157;SDS011;57524;48.312;7.938;2022-08-19T13:29:12;12.63;;;10.70;;
70157;SDS011;57524;48.312;7.938;2022-08-19T13:31:56;15.98;;;13.18;;
70157;SDS011;57524;48.312;7.938;2022-08-19T13:34:41;13.93;;;12.10;;
70157;SDS011;57524;48.312;7.938;2022-08-19T13:37:08;15.77;;;12.23;;
70157;SDS011;57524;48.312;7.938;2022-08-19T13:39:35;15.65;;;12.95;;
70157;SDS011;57524;48.312;7.938;2022-08-19T13:42:02;16.02;;;12.55;;
70157;SDS011;57524;48.312;7.938;2022-08-19T13:44:31;14.32;;;12.55;;
70157;SDS011;57524;48.312;7.938;2022-08-19T13:47:00;16.00;;;12.57;;
70157;SDS011;57524;48.312;7.938;2022-08-19T13:49:30;13.60;;;11.40;;
70157;SDS011;57524;48.312;7.938;2022-08-19T13:51:57;14.68;;;12.40;;
70157;SDS011;57524;48.312;7.938;2022-08-19T13:54:24;15.50;;;12.70;;
70157;SDS011;57524;48.312;7.938;2022-08-19T13:56:52;15.50;;;12.38;;
70157;SDS011;57524;48.312;7.938;2022-08-19T13:59:18;15.50;;;12.73;;
70157;SDS011;57524;48.312;7.938;2022-08-19T14:01:46;15.97;;;12.47;;
70157;SDS011;57524;48.312;7.938;2022-08-19T14:04:13;14.35;;;12.20;;
70157;SDS011;57524;48.312;7.938;2022-08-19T14:06:39;18.98;;;11.75;;
70157;SDS011;57524;48.312;7.938;2022-08-19T14:09:06;15.57;;;12.68;;
70157;SDS011;57524;48.312;7.938;2022-08-19T14:11:33;15.25;;;11.88;;
70157;SDS011;57524;48.312;7.938;2022-08-19T14:13:59;13.00;;;11.60;;
70157;SDS011;57524;48.312;7.938;2022-08-19T14:16:26;13.63;;;10.93;;
70157;SDS011;57524;48.312;7.938;2022-08-19T14:18:56;13.10;;;10.88;;
70157;SDS011;57524;48.312;7.938;2022-08-19T14:21:24;12.52;;;10.52;;
70157;SDS011;57524;48.312;7.938;2022-08-19T14:23:51;13.18;;;11.05;;
70157;SDS011;57524;48.312;7.938;2022-08-19T14:26:18;12.73;;;10.00;;
70157;SDS011;57524;48.312;7.938;2022-08-19T14:28:46;12.48;;;10.07;;
70157;SDS011;57524;48.312;7.938;2022-08-19T14:31:13;12.10;;;10.25;;
70157;SDS011;57524;48.312;7.938;2022-08-19T14:33:43;12.55;;;10.50;;